sensor_id;sensor_type;location;lat;lon;timestamp;P1;durP1;ratioP1;P2;durP2;ratioP2
39242;SDS011;29823;47.404;8.566;2023-04-30T00:00:10;9.57;;;5.28;;
39242;SDS011;29823;47.404;8.566;2023-04-30T00:02:38;7.90;;;5.53;;
39242;SDS011;29823;47.404;8.566;2023-04-30T00:05:07;8.07;;;5.88;;
39242;SDS011;29823;47.404;8.566;2023-04-30T00:07:35;8.48;;;6.47;;
39242;SDS011;29823;47.404;8.566;2023-04-30T00:12:36;10.30;;;5.85;;
39242;SDS011;29823;47.404;8.566;2023-04-30T00:15:05;7.75;;;6.32;;
39242;SDS011;29823;47.404;8.566;2023-04-30T00:17:34;9.60;;;5.72;;
39242;SDS011;29823;47.404;8.566;2023-04-30T00:20:02;9.25;;;6.45;;
39242;SDS011;29823;47.404;8.566;2023-04-30T00:22:30;9.65;;;6.25;;
39242;SDS011;29823;47.404;8.566;2023-04-30T00:24:59;11.05;;;6.97;;
39242;SDS011;29823;47.404;8.566;2023-04-30T00:27:27;12.02;;;6.45;;
39242;SDS011;29823;47.404;8.566;2023-04-30T00:29:56;10.13;;;7.00;;
39242;SDS011;29823;47.404;8.566;2023-04-30T00:32:26;10.52;;;6.53;;
39242;SDS011;29823;47.404;8.566;2023-04-30T00:34:53;10.75;;;6.85;;
39242;SDS011;29823;47.404;8.566;2023-04-30T00:37:21;10.95;;;6.03;;
39242;SDS011;29823;47.404;8.566;2023-04-30T00:39:49;11.43;;;7.00;;
39242;SDS011;29823;47.404;8.566;2023-04-30T00:42:17;12.20;;;7.20;;
39242;SDS011;29823;47.404;8.566;2023-04-30T00:44:45;11.43;;;6.45;;
39242;SDS011;29823;47.404;8.566;2023-04-30T00:47:13;9.57;;;6.82;;
39242;SDS011;29823;47.404;8.566;2023-04-30T00:49:42;12.30;;;7.22;;
39242;SDS011;29823;47.404;8.566;2023-04-30T00:52:10;9.02;;;6.68;;
39242;SDS011;29823;47.404;8.566;2023-04-30T00:54:38;12.48;;;7.97;;
39242;SDS011;29823;47.404;8.566;2023-04-30T00:57:06;10.57;;;7.53;;
39242;SDS011;29823;47.404;8.566;2023-04-30T00:59:37;10.45;;;7.47;;
39242;SDS011;29823;47.404;8.566;2023-04-30T01:02:05;12.35;;;7.82;;
39242;SDS011;29823;47.404;8.566;2023-04-30T01:04:34;10.57;;;7.65;;
39242;SDS011;29823;47.404;8.566;2023-04-30T01:07:03;11.55;;;8.02;;
39242;SDS011;29823;47.404;8.566;2023-04-30T01:09:32;11.35;;;7.20;;
39242;SDS011;29823;47.404;8.566;2023-04-30T01:12:02;13.38;;;8.20;;
39242;SDS011;29823;47.404;8.566;2023-04-30T01:14:42;11.02;;;7.78;;
39242;SDS011;29823;47.404;8.566;2023-04-30T01:17:20;12.98;;;8.10;;
39242;SDS011;29823;47.404;8.566;2023-04-30T01:19:58;15.82;;;8.77;;
39242;SDS011;29823;47.404;8.566;2023-04-30T01:22:34;11.70;;;7.97;;
39242;SDS011;29823;47.404;8.566;2023-04-30T01:25:20;12.65;;;8.00;;
39242;SDS011;29823;47.404;8.566;2023-04-30T01:28:03;12.27;;;7.57;;
39242;SDS011;29823;47.404;8.566;2023-04-30T01:30:34;12.65;;;8.50;;
39242;SDS011;29823;47.404;8.566;2023-04-30T01:33:02;12.55;;;8.43;;
39242;SDS011;29823;47.404;8.566;2023-04-30T01:35:34;13.32;;;8.93;;
39242;SDS011;29823;47.404;8.566;2023-04-30T01:38:19;12.48;;;8.13;;
39242;SDS011;29823;47.404;8.566;2023-04-30T01:40:55;12.63;;;8.50;;
39242;SDS011;29823;47.404;8.566;2023-04-30T01:43:29;12.65;;;8.30;;
39242;SDS011;29823;47.404;8.566;2023-04-30T01:46:07;16.88;;;8.55;;
39242;SDS011;29823;47.404;8.566;2023-04-30T01:48:42;11.48;;;8.02;;
39242;SDS011;29823;47.404;8.566;2023-04-30T01:51:22;12.48;;;7.97;;
39242;SDS011;29823;47.404;8.566;2023-04-30T01:53:56;16.38;;;8.35;;
39242;SDS011;29823;47.404;8.566;2023-04-30T01:56:30;13.52;;;8.05;;
39242;SDS011;29823;47.404;8.566;2023-04-30T01:59:00;14.32;;;8.45;;
39242;SDS011;29823;47.404;8.566;2023-04-30T02:01:31;11.20;;;8.05;;
39242;SDS011;29823;47.404;8.566;2023-04-30T02:03:59;19.30;;;10.63;;
39242;SDS011;29823;47.404;8.566;2023-04-30T02:06:27;11.10;;;8.40;;
39242;SDS011;29823;47.404;8.566;2023-04-30T02:08:56;10.05;;;7.28;;
39242;SDS011;29823;47.404;8.566;2023-04-30T02:11:28;12.85;;;7.57;;
39242;SDS011;29823;47.404;8.566;2023-04-30T02:13:56;12.57;;;8.38;;
39242;SDS011;29823;47.404;8.566;2023-04-30T02:16:25;12.02;;;7.68;;
39242;SDS011;29823;47.404;8.566;2023-04-30T02:18:53;12.65;;;7.88;;
39242;SDS011;29823;47.404;8.566;2023-04-30T02:21:21;9.80;;;7.28;;
39242;SDS011;29823;47.404;8.566;2023-04-30T02:23:49;12.07;;;7.97;;
39242;SDS011;29823;47.404;8.566;2023-04-30T02:26:17;14.40;;;8.32;;
39242;SDS011;29823;47.404;8.566;2023-04-30T02:28:44;11.88;;;7.32;;
39242;SDS011;29823;47.404;8.566;2023-04-30T02:31:12;10.82;;;7.82;;
39242;SDS011;29823;47.404;8.566;2023-04-30T02:33:41;11.13;;;8.18;;
39242;SDS011;29823;47.404;8.566;2023-04-30T02:36:09;12.50;;;8.02;;
39242;SDS011;29823;47.404;8.566;2023-04-30T02:38:37;11.02;;;8.02;;
39242;SDS011;29823;47.404;8.566;2023-04-30T02:41:05;11.55;;;8.00;;
39242;SDS011;29823;47.404;8.566;2023-04-30T02:43:33;12.90;;;8.18;;
39242;SDS011;29823;47.404;8.566;2023-04-30T02:46:00;11.82;;;7.82;;
39242;SDS011;29823;47.404;8.566;2023-04-30T02:48:28;17.60;;;8.73;;
39242;SDS011;29823;47.404;8.566;2023-04-30T02:50:57;10.57;;;7.53;;
39242;SDS011;29823;47.404;8.566;2023-04-30T02:53:25;14.27;;;8.57;;
39242;SDS011;29823;47.404;8.566;2023-04-30T02:55:53;12.43;;;7.82;;
39242;SDS011;29823;47.404;8.566;2023-04-30T02:58:21;11.20;;;7.80;;
39242;SDS011;29823;47.404;8.566;2023-04-30T03:00:49;11.27;;;7.95;;
39242;SDS011;29823;47.404;8.566;2023-04-30T03:03:16;12.10;;;7.75;;
39242;SDS011;29823;47.404;8.566;2023-04-30T03:05:44;16.20;;;10.98;;
39242;SDS011;29823;47.404;8.566;2023-04-30T03:08:13;11.93;;;8.10;;
39242;SDS011;29823;47.404;8.566;2023-04-30T03:10:41;18.63;;;8.05;;
39242;SDS011;29823;47.404;8.566;2023-04-30T03:13:09;14.20;;;8.18;;
39242;SDS011;29823;47.404;8.566;2023-04-30T03:15:37;11.70;;;7.30;;
39242;SDS011;29823;47.404;8.566;2023-04-30T03:18:05;10.93;;;7.90;;
39242;SDS011;29823;47.404;8.566;2023-04-30T03:20:33;12.60;;;8.15;;
39242;SDS011;29823;47.404;8.566;2023-04-30T03:23:01;13.30;;;7.60;;
39242;SDS011;29823;47.404;8.566;2023-04-30T03:25:30;12.60;;;7.75;;
39242;SDS011;29823;47.404;8.566;2023-04-30T03:27:58;13.15;;;8.23;;
39242;SDS011;29823;47.404;8.566;2023-04-30T03:30:26;12.50;;;8.05;;
39242;SDS011;29823;47.404;8.566;2023-04-30T03:32:54;11.65;;;7.60;;
39242;SDS011;29823;47.404;8.566;2023-04-30T03:35:22;11.18;;;8.27;;
39242;SDS011;29823;47.404;8.566;2023-04-30T03:37:50;14.13;;;7.82;;
39242;SDS011;29823;47.404;8.566;2023-04-30T03:40:18;12.27;;;8.00;;
39242;SDS011;29823;47.404;8.566;2023-04-30T03:42:47;13.98;;;8.77;;
39242;SDS011;29823;47.404;8.566;2023-04-30T03:45:16;12.07;;;8.57;;
39242;SDS011;29823;47.404;8.566;2023-04-30T03:47:44;13.63;;;7.97;;
39242;SDS011;29823;47.404;8.566;2023-04-30T03:50:12;14.05;;;9.10;;
39242;SDS011;29823;47.404;8.566;2023-04-30T03:52:40;12.52;;;8.50;;
39242;SDS011;29823;47.404;8.566;2023-04-30T03:55:08;12.55;;;8.10;;
39242;SDS011;29823;47.404;8.566;2023-04-30T03:57:36;11.23;;;7.55;;
39242;SDS011;29823;47.404;8.566;2023-04-30T04:00:07;26.23;;;16.70;;
39242;SDS011;29823;47.404;8.566;2023-04-30T04:02:36;11.82;;;7.80;;
39242;SDS011;29823;47.404;8.566;2023-04-30T04:05:04;13.38;;;8.98;;
39242;SDS011;29823;47.404;8.566;2023-04-30T04:07:33;11.77;;;8.27;;
39242;SDS011;29823;47.404;8.566;2023-04-30T04:10:01;13.02;;;8.40;;
39242;SDS011;29823;47.404;8.566;2023-04-30T04:12:28;12.52;;;7.53;;
39242;SDS011;29823;47.404;8.566;2023-04-30T04:14:56;12.43;;;8.80;;
39242;SDS011;29823;47.404;8.566;2023-04-30T04:17:26;13.85;;;9.30;;
39242;SDS011;29823;47.404;8.566;2023-04-30T04:19:54;14.88;;;9.32;;
39242;SDS011;29823;47.404;8.566;2023-04-30T04:22:22;15.05;;;8.93;;
39242;SDS011;29823;47.404;8.566;2023-04-30T04:24:50;13.73;;;8.75;;
39242;SDS011;29823;47.404;8.566;2023-04-30T04:27:18;16.48;;;9.27;;
39242;SDS011;29823;47.404;8.566;2023-04-30T04:29:45;18.00;;;9.27;;
39242;SDS011;29823;47.404;8.566;2023-04-30T04:32:13;13.20;;;9.13;;
39242;SDS011;29823;47.404;8.566;2023-04-30T04:34:43;14.85;;;9.05;;
39242;SDS011;29823;47.404;8.566;2023-04-30T04:37:11;13.82;;;8.40;;
39242;SDS011;29823;47.404;8.566;2023-04-30T04:39:38;12.63;;;8.65;;
39242;SDS011;29823;47.404;8.566;2023-04-30T04:42:06;13.00;;;8.15;;
39242;SDS011;29823;47.404;8.566;2023-04-30T04:44:34;16.25;;;8.43;;
39242;SDS011;29823;47.404;8.566;2023-04-30T04:47:02;14.30;;;9.57;;
39242;SDS011;29823;47.404;8.566;2023-04-30T04:49:31;13.40;;;9.13;;
39242;SDS011;29823;47.404;8.566;2023-04-30T04:52:00;14.55;;;8.40;;
39242;SDS011;29823;47.404;8.566;2023-04-30T04:54:29;13.57;;;8.90;;
39242;SDS011;29823;47.404;8.566;2023-04-30T04:56:56;14.05;;;8.43;;
39242;SDS011;29823;47.404;8.566;2023-04-30T04:59:24;14.70;;;9.48;;
39242;SDS011;29823;47.404;8.566;2023-04-30T05:01:53;15.95;;;8.88;;
39242;SDS011;29823;47.404;8.566;2023-04-30T05:04:21;13.73;;;8.63;;
39242;SDS011;29823;47.404;8.566;2023-04-30T05:06:49;15.02;;;9.35;;
39242;SDS011;29823;47.404;8.566;2023-04-30T05:09:19;15.45;;;9.10;;
39242;SDS011;29823;47.404;8.566;2023-04-30T05:11:46;14.27;;;8.75;;
39242;SDS011;29823;47.404;8.566;2023-04-30T05:14:15;13.77;;;8.40;;
39242;SDS011;29823;47.404;8.566;2023-04-30T05:16:42;13.98;;;8.55;;
39242;SDS011;29823;47.404;8.566;2023-04-30T05:19:11;15.93;;;8.75;;
39242;SDS011;29823;47.404;8.566;2023-04-30T05:21:38;14.35;;;9.43;;
39242;SDS011;29823;47.404;8.566;2023-04-30T05:24:06;15.55;;;8.85;;
39242;SDS011;29823;47.404;8.566;2023-04-30T05:26:35;14.88;;;8.27;;
39242;SDS011;29823;47.404;8.566;2023-04-30T05:29:03;13.48;;;7.72;;
39242;SDS011;29823;47.404;8.566;2023-04-30T05:31:31;13.23;;;7.90;;
39242;SDS011;29823;47.404;8.566;2023-04-30T05:33:59;13.15;;;7.63;;
39242;SDS011;29823;47.404;8.566;2023-04-30T05:36:26;12.77;;;8.60;;
39242;SDS011;29823;47.404;8.566;2023-04-30T05:38:54;13.75;;;8.65;;
39242;SDS011;29823;47.404;8.566;2023-04-30T05:41:23;13.38;;;7.82;;
39242;SDS011;29823;47.404;8.566;2023-04-30T05:43:52;10.95;;;7.60;;
39242;SDS011;29823;47.404;8.566;2023-04-30T05:46:20;12.30;;;7.53;;
39242;SDS011;29823;47.404;8.566;2023-04-30T05:48:48;13.82;;;8.40;;
39242;SDS011;29823;47.404;8.566;2023-04-30T05:51:16;11.73;;;7.82;;
39242;SDS011;29823;47.404;8.566;2023-04-30T05:53:44;10.75;;;7.90;;
39242;SDS011;29823;47.404;8.566;2023-04-30T05:56:12;11.95;;;8.00;;
39242;SDS011;29823;47.404;8.566;2023-04-30T05:58:40;14.45;;;7.93;;
39242;SDS011;29823;47.404;8.566;2023-04-30T06:01:09;12.02;;;7.68;;
39242;SDS011;29823;47.404;8.566;2023-04-30T06:03:37;11.80;;;7.93;;
39242;SDS011;29823;47.404;8.566;2023-04-30T06:06:05;11.02;;;8.13;;
39242;SDS011;29823;47.404;8.566;2023-04-30T06:08:33;11.25;;;8.05;;
39242;SDS011;29823;47.404;8.566;2023-04-30T06:11:01;12.25;;;7.63;;
39242;SDS011;29823;47.404;8.566;2023-04-30T06:13:30;10.48;;;7.22;;
39242;SDS011;29823;47.404;8.566;2023-04-30T06:15:58;13.77;;;7.55;;
39242;SDS011;29823;47.404;8.566;2023-04-30T06:18:27;10.63;;;7.55;;
39242;SDS011;29823;47.404;8.566;2023-04-30T06:20:58;10.43;;;7.85;;
39242;SDS011;29823;47.404;8.566;2023-04-30T06:23:26;10.63;;;7.47;;
39242;SDS011;29823;47.404;8.566;2023-04-30T06:25:53;14.80;;;8.63;;
39242;SDS011;29823;47.404;8.566;2023-04-30T06:28:21;12.77;;;7.45;;
39242;SDS011;29823;47.404;8.566;2023-04-30T06:30:49;17.17;;;8.55;;
39242;SDS011;29823;47.404;8.566;2023-04-30T06:33:19;11.15;;;8.07;;
39242;SDS011;29823;47.404;8.566;2023-04-30T06:35:48;10.85;;;7.97;;
39242;SDS011;29823;47.404;8.566;2023-04-30T06:38:19;8.15;;;6.70;;
39242;SDS011;29823;47.404;8.566;2023-04-30T06:40:47;19.88;;;12.13;;
39242;SDS011;29823;47.404;8.566;2023-04-30T06:43:15;11.98;;;7.82;;
39242;SDS011;29823;47.404;8.566;2023-04-30T06:45:43;10.73;;;7.63;;
39242;SDS011;29823;47.404;8.566;2023-04-30T06:48:11;11.90;;;7.85;;
39242;SDS011;29823;47.404;8.566;2023-04-30T06:50:39;12.23;;;7.50;;
39242;SDS011;29823;47.404;8.566;2023-04-30T06:53:11;14.48;;;8.63;;
39242;SDS011;29823;47.404;8.566;2023-04-30T06:55:40;10.70;;;7.78;;
39242;SDS011;29823;47.404;8.566;2023-04-30T06:58:08;12.30;;;8.00;;
39242;SDS011;29823;47.404;8.566;2023-04-30T07:00:36;11.52;;;8.05;;
39242;SDS011;29823;47.404;8.566;2023-04-30T07:03:04;13.82;;;8.60;;
39242;SDS011;29823;47.404;8.566;2023-04-30T07:05:32;12.43;;;8.43;;
39242;SDS011;29823;47.404;8.566;2023-04-30T07:08:00;13.02;;;8.77;;
39242;SDS011;29823;47.404;8.566;2023-04-30T07:10:30;13.15;;;8.52;;
39242;SDS011;29823;47.404;8.566;2023-04-30T07:12:58;12.45;;;8.02;;
39242;SDS011;29823;47.404;8.566;2023-04-30T07:15:26;12.52;;;8.43;;
39242;SDS011;29823;47.404;8.566;2023-04-30T07:17:55;12.07;;;8.63;;
39242;SDS011;29823;47.404;8.566;2023-04-30T07:20:23;11.88;;;7.88;;
39242;SDS011;29823;47.404;8.566;2023-04-30T07:22:51;13.82;;;7.63;;
39242;SDS011;29823;47.404;8.566;2023-04-30T07:25:20;13.23;;;7.38;;
39242;SDS011;29823;47.404;8.566;2023-04-30T07:27:49;10.77;;;7.18;;
39242;SDS011;29823;47.404;8.566;2023-04-30T07:30:18;11.07;;;7.50;;
39242;SDS011;29823;47.404;8.566;2023-04-30T07:32:47;11.27;;;7.78;;
39242;SDS011;29823;47.404;8.566;2023-04-30T07:35:15;13.85;;;9.05;;
39242;SDS011;29823;47.404;8.566;2023-04-30T07:37:43;11.55;;;8.68;;
39242;SDS011;29823;47.404;8.566;2023-04-30T07:40:11;12.93;;;8.52;;
39242;SDS011;29823;47.404;8.566;2023-04-30T07:42:51;12.75;;;8.50;;
39242;SDS011;29823;47.404;8.566;2023-04-30T07:45:19;13.95;;;9.23;;
39242;SDS011;29823;47.404;8.566;2023-04-30T07:47:47;14.43;;;9.35;;
39242;SDS011;29823;47.404;8.566;2023-04-30T07:50:15;11.40;;;8.32;;
39242;SDS011;29823;47.404;8.566;2023-04-30T07:52:43;11.00;;;8.23;;
39242;SDS011;29823;47.404;8.566;2023-04-30T07:55:11;12.20;;;9.13;;
39242;SDS011;29823;47.404;8.566;2023-04-30T07:57:39;13.43;;;8.50;;
39242;SDS011;29823;47.404;8.566;2023-04-30T08:00:09;14.93;;;9.25;;
39242;SDS011;29823;47.404;8.566;2023-04-30T08:02:38;12.50;;;8.10;;
39242;SDS011;29823;47.404;8.566;2023-04-30T08:05:09;14.02;;;9.23;;
39242;SDS011;29823;47.404;8.566;2023-04-30T08:07:37;12.35;;;8.68;;
39242;SDS011;29823;47.404;8.566;2023-04-30T08:10:06;11.10;;;8.35;;
39242;SDS011;29823;47.404;8.566;2023-04-30T08:12:34;10.50;;;7.85;;
39242;SDS011;29823;47.404;8.566;2023-04-30T08:15:03;14.85;;;10.57;;
39242;SDS011;29823;47.404;8.566;2023-04-30T08:17:34;12.13;;;8.88;;
39242;SDS011;29823;47.404;8.566;2023-04-30T08:20:02;10.52;;;8.18;;
39242;SDS011;29823;47.404;8.566;2023-04-30T08:22:31;10.70;;;7.55;;
39242;SDS011;29823;47.404;8.566;2023-04-30T08:24:59;14.52;;;8.23;;
39242;SDS011;29823;47.404;8.566;2023-04-30T08:27:29;14.30;;;8.13;;
39242;SDS011;29823;47.404;8.566;2023-04-30T08:29:57;12.40;;;7.63;;
39242;SDS011;29823;47.404;8.566;2023-04-30T08:32:25;13.77;;;8.35;;
39242;SDS011;29823;47.404;8.566;2023-04-30T08:34:55;11.85;;;8.23;;
39242;SDS011;29823;47.404;8.566;2023-04-30T08:37:23;8.65;;;6.60;;
39242;SDS011;29823;47.404;8.566;2023-04-30T08:39:51;10.90;;;7.20;;
39242;SDS011;29823;47.404;8.566;2023-04-30T08:42:20;9.20;;;7.30;;
39242;SDS011;29823;47.404;8.566;2023-04-30T08:44:51;11.40;;;7.55;;
39242;SDS011;29823;47.404;8.566;2023-04-30T08:47:19;10.65;;;7.80;;
39242;SDS011;29823;47.404;8.566;2023-04-30T08:49:47;9.45;;;7.45;;
39242;SDS011;29823;47.404;8.566;2023-04-30T08:52:16;9.52;;;6.93;;
39242;SDS011;29823;47.404;8.566;2023-04-30T08:54:45;11.05;;;7.35;;
39242;SDS011;29823;47.404;8.566;2023-04-30T08:57:14;12.05;;;7.43;;
39242;SDS011;29823;47.404;8.566;2023-04-30T08:59:43;9.48;;;7.38;;
39242;SDS011;29823;47.404;8.566;2023-04-30T09:02:12;9.00;;;7.45;;
39242;SDS011;29823;47.404;8.566;2023-04-30T09:04:40;8.85;;;7.22;;
39242;SDS011;29823;47.404;8.566;2023-04-30T09:07:07;10.27;;;6.32;;
39242;SDS011;29823;47.404;8.566;2023-04-30T09:09:38;11.23;;;7.55;;
39242;SDS011;29823;47.404;8.566;2023-04-30T09:12:10;9.38;;;7.05;;
39242;SDS011;29823;47.404;8.566;2023-04-30T09:14:56;12.00;;;7.60;;
39242;SDS011;29823;47.404;8.566;2023-04-30T09:17:25;9.60;;;6.90;;
39242;SDS011;29823;47.404;8.566;2023-04-30T09:19:53;10.07;;;6.90;;
39242;SDS011;29823;47.404;8.566;2023-04-30T09:22:23;9.75;;;6.45;;
39242;SDS011;29823;47.404;8.566;2023-04-30T09:24:52;9.10;;;7.65;;
39242;SDS011;29823;47.404;8.566;2023-04-30T09:27:20;9.25;;;7.00;;
39242;SDS011;29823;47.404;8.566;2023-04-30T09:29:49;8.55;;;7.10;;
39242;SDS011;29823;47.404;8.566;2023-04-30T09:32:17;10.00;;;7.28;;
39242;SDS011;29823;47.404;8.566;2023-04-30T09:34:45;9.20;;;6.90;;
39242;SDS011;29823;47.404;8.566;2023-04-30T09:37:13;9.35;;;7.32;;
39242;SDS011;29823;47.404;8.566;2023-04-30T09:39:48;10.52;;;6.60;;
39242;SDS011;29823;47.404;8.566;2023-04-30T09:42:18;9.85;;;6.70;;
39242;SDS011;29823;47.404;8.566;2023-04-30T09:44:46;7.70;;;6.07;;
39242;SDS011;29823;47.404;8.566;2023-04-30T09:47:15;8.27;;;6.15;;
39242;SDS011;29823;47.404;8.566;2023-04-30T09:49:46;8.05;;;6.40;;
39242;SDS011;29823;47.404;8.566;2023-04-30T09:52:17;8.70;;;6.15;;
39242;SDS011;29823;47.404;8.566;2023-04-30T09:54:46;6.70;;;5.93;;
39242;SDS011;29823;47.404;8.566;2023-04-30T09:57:14;9.05;;;6.00;;
39242;SDS011;29823;47.404;8.566;2023-04-30T09:59:45;7.10;;;6.18;;
39242;SDS011;29823;47.404;8.566;2023-04-30T10:02:14;8.15;;;6.85;;
39242;SDS011;29823;47.404;8.566;2023-04-30T10:04:44;10.35;;;6.03;;
39242;SDS011;29823;47.404;8.566;2023-04-30T10:09:48;7.50;;;5.37;;
39242;SDS011;29823;47.404;8.566;2023-04-30T10:12:19;7.03;;;4.95;;
39242;SDS011;29823;47.404;8.566;2023-04-30T10:14:53;8.85;;;4.82;;
39242;SDS011;29823;47.404;8.566;2023-04-30T10:17:26;6.13;;;5.00;;
39242;SDS011;29823;47.404;8.566;2023-04-30T10:20:00;6.82;;;4.80;;
39242;SDS011;29823;47.404;8.566;2023-04-30T10:22:31;5.55;;;4.35;;
39242;SDS011;29823;47.404;8.566;2023-04-30T10:25:01;5.15;;;3.65;;
39242;SDS011;29823;47.404;8.566;2023-04-30T10:27:29;4.00;;;3.53;;
39242;SDS011;29823;47.404;8.566;2023-04-30T10:29:59;7.53;;;4.78;;
39242;SDS011;29823;47.404;8.566;2023-04-30T10:32:29;5.25;;;3.75;;
39242;SDS011;29823;47.404;8.566;2023-04-30T10:35:07;19.17;;;12.00;;
39242;SDS011;29823;47.404;8.566;2023-04-30T10:37:42;4.90;;;3.50;;
39242;SDS011;29823;47.404;8.566;2023-04-30T10:40:17;4.22;;;3.35;;
39242;SDS011;29823;47.404;8.566;2023-04-30T10:42:46;4.80;;;3.05;;
39242;SDS011;29823;47.404;8.566;2023-04-30T10:45:17;4.03;;;3.03;;
39242;SDS011;29823;47.404;8.566;2023-04-30T10:47:45;5.05;;;3.25;;
39242;SDS011;29823;47.404;8.566;2023-04-30T10:50:13;4.63;;;3.13;;
39242;SDS011;29823;47.404;8.566;2023-04-30T10:52:41;3.88;;;3.08;;
39242;SDS011;29823;47.404;8.566;2023-04-30T10:55:10;3.22;;;2.80;;
39242;SDS011;29823;47.404;8.566;2023-04-30T10:57:43;2.95;;;2.60;;
39242;SDS011;29823;47.404;8.566;2023-04-30T11:00:23;5.90;;;3.08;;
39242;SDS011;29823;47.404;8.566;2023-04-30T11:02:55;4.15;;;2.90;;
39242;SDS011;29823;47.404;8.566;2023-04-30T11:05:33;4.82;;;3.63;;
39242;SDS011;29823;47.404;8.566;2023-04-30T11:08:02;4.28;;;2.95;;
39242;SDS011;29823;47.404;8.566;2023-04-30T11:10:31;3.83;;;3.17;;
39242;SDS011;29823;47.404;8.566;2023-04-30T11:13:02;3.90;;;2.95;;
39242;SDS011;29823;47.404;8.566;2023-04-30T11:15:34;3.45;;;2.70;;
39242;SDS011;29823;47.404;8.566;2023-04-30T11:18:07;4.60;;;2.13;;
39242;SDS011;29823;47.404;8.566;2023-04-30T11:20:38;4.03;;;2.20;;
39242;SDS011;29823;47.404;8.566;2023-04-30T11:25:40;3.40;;;2.60;;
39242;SDS011;29823;47.404;8.566;2023-04-30T11:28:12;4.35;;;2.90;;
39242;SDS011;29823;47.404;8.566;2023-04-30T11:30:51;6.40;;;4.80;;
39242;SDS011;29823;47.404;8.566;2023-04-30T11:33:19;8.02;;;2.45;;
39242;SDS011;29823;47.404;8.566;2023-04-30T11:35:48;5.18;;;2.88;;
39242;SDS011;29823;47.404;8.566;2023-04-30T11:38:19;5.10;;;3.25;;
39242;SDS011;29823;47.404;8.566;2023-04-30T11:40:48;6.68;;;2.92;;
39242;SDS011;29823;47.404;8.566;2023-04-30T11:43:23;3.60;;;2.90;;
39242;SDS011;29823;47.404;8.566;2023-04-30T11:48:44;2.95;;;2.50;;
39242;SDS011;29823;47.404;8.566;2023-04-30T11:51:13;3.95;;;2.70;;
39242;SDS011;29823;47.404;8.566;2023-04-30T11:53:41;3.97;;;2.60;;
39242;SDS011;29823;47.404;8.566;2023-04-30T11:56:12;4.38;;;2.88;;
39242;SDS011;29823;47.404;8.566;2023-04-30T11:58:39;3.70;;;2.35;;
39242;SDS011;29823;47.404;8.566;2023-04-30T12:01:07;3.03;;;2.38;;
39242;SDS011;29823;47.404;8.566;2023-04-30T12:03:41;7.82;;;2.63;;
39242;SDS011;29823;47.404;8.566;2023-04-30T12:06:10;5.60;;;2.70;;
39242;SDS011;29823;47.404;8.566;2023-04-30T12:08:40;3.08;;;2.45;;
39242;SDS011;29823;47.404;8.566;2023-04-30T12:11:20;2.42;;;2.17;;
39242;SDS011;29823;47.404;8.566;2023-04-30T12:13:54;8.02;;;2.42;;
39242;SDS011;29823;47.404;8.566;2023-04-30T12:18:52;3.13;;;2.35;;
39242;SDS011;29823;47.404;8.566;2023-04-30T12:21:21;5.43;;;3.47;;
39242;SDS011;29823;47.404;8.566;2023-04-30T12:23:49;3.05;;;2.60;;
39242;SDS011;29823;47.404;8.566;2023-04-30T12:26:17;3.45;;;2.58;;
39242;SDS011;29823;47.404;8.566;2023-04-30T12:28:45;3.95;;;2.40;;
39242;SDS011;29823;47.404;8.566;2023-04-30T12:31:15;3.03;;;2.45;;
39242;SDS011;29823;47.404;8.566;2023-04-30T12:33:53;5.93;;;2.60;;
39242;SDS011;29823;47.404;8.566;2023-04-30T12:36:21;3.97;;;2.50;;
39242;SDS011;29823;47.404;8.566;2023-04-30T12:39:00;5.10;;;2.42;;
39242;SDS011;29823;47.404;8.566;2023-04-30T12:41:28;7.32;;;2.40;;
39242;SDS011;29823;47.404;8.566;2023-04-30T12:46:46;2.92;;;2.45;;
39242;SDS011;29823;47.404;8.566;2023-04-30T12:49:23;3.50;;;2.42;;
39242;SDS011;29823;47.404;8.566;2023-04-30T12:51:56;7.70;;;2.90;;
39242;SDS011;29823;47.404;8.566;2023-04-30T12:54:26;3.35;;;2.40;;
39242;SDS011;29823;47.404;8.566;2023-04-30T12:57:01;3.78;;;2.45;;
39242;SDS011;29823;47.404;8.566;2023-04-30T12:59:31;3.65;;;2.47;;
39242;SDS011;29823;47.404;8.566;2023-04-30T13:02:08;2.83;;;2.25;;
39242;SDS011;29823;47.404;8.566;2023-04-30T13:04:38;3.75;;;2.55;;
39242;SDS011;29823;47.404;8.566;2023-04-30T13:07:07;3.92;;;2.65;;
39242;SDS011;29823;47.404;8.566;2023-04-30T13:09:35;2.60;;;2.40;;
39242;SDS011;29823;47.404;8.566;2023-04-30T13:12:04;3.72;;;2.20;;
39242;SDS011;29823;47.404;8.566;2023-04-30T13:14:33;2.88;;;2.40;;
39242;SDS011;29823;47.404;8.566;2023-04-30T13:17:01;5.53;;;3.00;;
39242;SDS011;29823;47.404;8.566;2023-04-30T13:19:31;3.40;;;2.58;;
39242;SDS011;29823;47.404;8.566;2023-04-30T13:22:01;3.45;;;2.58;;
39242;SDS011;29823;47.404;8.566;2023-04-30T13:24:29;3.65;;;2.38;;
39242;SDS011;29823;47.404;8.566;2023-04-30T13:26:56;3.95;;;2.70;;
39242;SDS011;29823;47.404;8.566;2023-04-30T13:29:25;3.00;;;2.30;;
39242;SDS011;29823;47.404;8.566;2023-04-30T13:31:53;3.28;;;2.22;;
39242;SDS011;29823;47.404;8.566;2023-04-30T13:34:21;3.30;;;2.47;;
39242;SDS011;29823;47.404;8.566;2023-04-30T13:36:49;4.47;;;2.17;;
39242;SDS011;29823;47.404;8.566;2023-04-30T13:39:19;3.00;;;2.15;;
39242;SDS011;29823;47.404;8.566;2023-04-30T13:41:47;3.17;;;2.40;;
39242;SDS011;29823;47.404;8.566;2023-04-30T13:44:15;2.97;;;2.15;;
39242;SDS011;29823;47.404;8.566;2023-04-30T13:46:43;3.03;;;2.33;;
39242;SDS011;29823;47.404;8.566;2023-04-30T13:49:11;12.80;;;8.48;;
39242;SDS011;29823;47.404;8.566;2023-04-30T13:51:39;2.80;;;1.92;;
39242;SDS011;29823;47.404;8.566;2023-04-30T13:54:07;4.32;;;2.40;;
39242;SDS011;29823;47.404;8.566;2023-04-30T13:56:36;5.28;;;2.30;;
39242;SDS011;29823;47.404;8.566;2023-04-30T13:59:04;2.53;;;2.03;;
39242;SDS011;29823;47.404;8.566;2023-04-30T14:01:32;6.65;;;2.30;;
39242;SDS011;29823;47.404;8.566;2023-04-30T14:04:00;2.58;;;2.20;;
39242;SDS011;29823;47.404;8.566;2023-04-30T14:06:28;3.22;;;2.28;;
39242;SDS011;29823;47.404;8.566;2023-04-30T14:08:56;3.63;;;1.98;;
39242;SDS011;29823;47.404;8.566;2023-04-30T14:11:24;4.95;;;2.92;;
39242;SDS011;29823;47.404;8.566;2023-04-30T14:13:54;7.25;;;2.65;;
39242;SDS011;29823;47.404;8.566;2023-04-30T14:16:21;3.42;;;2.50;;
39242;SDS011;29823;47.404;8.566;2023-04-30T14:18:49;2.90;;;2.28;;
39242;SDS011;29823;47.404;8.566;2023-04-30T14:21:17;3.65;;;2.45;;
39242;SDS011;29823;47.404;8.566;2023-04-30T14:23:45;2.65;;;2.33;;
39242;SDS011;29823;47.404;8.566;2023-04-30T14:26:13;2.75;;;2.20;;
39242;SDS011;29823;47.404;8.566;2023-04-30T14:28:41;2.78;;;2.33;;
39242;SDS011;29823;47.404;8.566;2023-04-30T14:31:10;3.35;;;2.80;;
39242;SDS011;29823;47.404;8.566;2023-04-30T14:33:38;2.88;;;2.10;;
39242;SDS011;29823;47.404;8.566;2023-04-30T14:36:06;4.20;;;2.83;;
39242;SDS011;29823;47.404;8.566;2023-04-30T14:38:34;10.60;;;2.70;;
39242;SDS011;29823;47.404;8.566;2023-04-30T14:41:02;13.55;;;4.05;;
39242;SDS011;29823;47.404;8.566;2023-04-30T14:43:29;2.10;;;1.80;;
39242;SDS011;29823;47.404;8.566;2023-04-30T14:45:57;2.70;;;1.95;;
39242;SDS011;29823;47.404;8.566;2023-04-30T14:48:26;2.65;;;2.05;;
39242;SDS011;29823;47.404;8.566;2023-04-30T14:50:54;7.65;;;2.85;;
39242;SDS011;29823;47.404;8.566;2023-04-30T14:53:22;2.88;;;2.03;;
39242;SDS011;29823;47.404;8.566;2023-04-30T14:55:50;3.92;;;2.40;;
39242;SDS011;29823;47.404;8.566;2023-04-30T14:58:17;12.18;;;6.53;;
39242;SDS011;29823;47.404;8.566;2023-04-30T15:00:46;3.60;;;2.50;;
39242;SDS011;29823;47.404;8.566;2023-04-30T15:03:14;6.15;;;2.00;;
39242;SDS011;29823;47.404;8.566;2023-04-30T15:05:44;4.93;;;2.03;;
39242;SDS011;29823;47.404;8.566;2023-04-30T15:08:12;3.63;;;2.25;;